ADDS TAF Board (Experimental) INFO Settings
IDs: Format: Expanded Condensed

KLGA - New York/La Guardia, NY, US

Issued at 2323 UTC 25 May 2016
Updated at: 0034 UTC 26 May 2016
Time2351Z 26/01Z 26/02Z 26/03Z 26/04Z 26/05Z 26/06Z 26/07Z 26/08Z 26/09Z 26/10Z 26/11Z 26/12Z 26/13Z
Type OBS PRVL PRVL PRVL PRVL PRVL PRVL PRVL PRVL PRVL PRVL PRVL PRVL PRVL
VIS 10 >6 >6 >6 >6 >6 >6 >6 >6 >6 >6 >6 >6 >6
CIG -- -- -- -- -- -- -- -- -- -- -- -- -- --
Cover SCT FEW FEW FEW FEW FEW FEW FEW FEW FEW FEW FEW FEW FEW
FltCat VFR VFR VFR VFR VFR VFR VFR VFR VFR VFR VFR VFR VFR VFR
WX -- -- -- -- -- -- -- -- -- -- -- -- -- --
WDir 230 250 250 250 250 250 250 250 250 250 VRB VRB VRB VRB
WSpd 8 9 6 6 6 6 6 6 6 6 4 4 4 4
WGst -- -- -- -- -- -- -- -- -- -- -- -- -- --
R04/22
XWnd 2 6 4 4 4 4 4 4 4 4 VRB VRB VRB VRB
HWnd -8 -7 -5 -5 -5 -5 -5 -5 -5 -5 VRB VRB VRB VRB
R13/31
XWnd -8 -7 -5 -5 -5 -5 -5 -5 -5 -5 VRB VRB VRB VRB
HWnd -2 -6 -4 -4 -4 -4 -4 -4 -4 -4 VRB VRB VRB VRB

NOTE: TEMPO conditions in [brackets]. Keep in mind TEMPO conditions might be better (lower impact) than prevailing conditions.

Raw TAF
KLGA 252323Z 2600/2624 25009KT P6SM FEW250
  FM260200 25006KT P6SM FEW250
  FM261000 VRB04KT P6SM FEW250
  FM261600 19006KT P6SM SCT100 SCT250
  FM261900 18011KT P6SM SCT100 SCT250


Raw METAR
KLGA 252351Z 23008KT 10SM SCT250 30/10 A3002 RMK AO2 SLP166 T03000100 10322 20289 53003 $
KLGA 252251Z 26008KT 10SM SCT250 32/08 A3001 RMK AO2 SLP163 T03170083 $
KLGA 252151Z 24007KT 10SM SCT250 32/09 A3002 RMK AO2 SLP164 T03220089 $

METAR Board
Radar Display
Forecast Discussion

TAF Board Legend

Potential Impact
Threat None Slight Moderate High
Visibility (sm) ≥5.1 5.1>X≥3 3>X≥1 <1
Ceiling (100 ft) ≥30.1 30.1>X≥10 10>X≥5 <5
Wind Speed (kt) <10 10≤X<20 20≤X<30 ≥30
Wind Gust (kt) <15 15≤X<25 25≤X<35 ≥35
Weather No Wx Reported VCTS,-TS,-FZRA,SN TS,FZRA +TS,+FZRA,+SN